createdAt,value
2018-01-23T00:02:19.062Z,17.90
2018-01-23T00:04:46.520Z,15.27
2018-01-23T00:07:14.051Z,15.82
2018-01-23T00:09:41.522Z,16.25
2018-01-23T00:12:09.087Z,20.60
2018-01-23T00:14:36.800Z,18.52
2018-01-23T00:17:04.325Z,17.15
2018-01-23T00:19:31.774Z,16.30
2018-01-23T00:21:59.251Z,15.40
2018-01-23T00:24:27.539Z,27.98
2018-01-23T00:26:55.789Z,16.40
2018-01-23T00:29:23.249Z,14.43
2018-01-23T00:31:50.718Z,18.92
2018-01-23T00:34:18.271Z,14.73
2018-01-23T00:36:45.746Z,13.32
2018-01-23T00:39:13.275Z,18.70
2018-01-23T00:41:40.839Z,23.85
2018-01-23T00:44:08.305Z,19.25
2018-01-23T00:46:35.782Z,16.80
2018-01-23T00:49:04.032Z,16.27
2018-01-23T00:51:31.587Z,13.98
2018-01-23T00:53:59.055Z,18.52
2018-01-23T00:56:26.627Z,19.45
2018-01-23T00:58:54.870Z,15.43
2018-01-23T01:01:22.350Z,23.02
2018-01-23T01:03:49.911Z,17.83
2018-01-23T01:06:17.395Z,19.33
2018-01-23T01:08:45.644Z,20.83
2018-01-23T01:11:13.110Z,22.33
2018-01-23T01:13:40.583Z,20.17
2018-01-23T01:16:08.835Z,24.87
2018-01-23T01:18:36.298Z,27.98
2018-01-23T01:21:03.854Z,27.42
2018-01-23T01:23:31.336Z,20.35
2018-01-23T01:25:59.572Z,20.12
2018-01-23T01:28:27.047Z,26.35
2018-01-23T01:30:54.560Z,23.80
2018-01-23T01:33:22.032Z,23.33
2018-01-23T01:35:49.486Z,19.67
2018-01-23T01:38:16.982Z,21.15
2018-01-23T01:40:44.474Z,22.62
2018-01-23T01:43:12.719Z,22.35
2018-01-23T01:45:40.276Z,24.52
2018-01-23T01:48:07.758Z,22.40
2018-01-23T01:50:35.983Z,24.77
2018-01-23T01:53:03.503Z,24.50
2018-01-23T01:55:31.047Z,23.50
2018-01-23T01:57:58.514Z,22.85
2018-01-23T02:00:26.746Z,21.95
2018-01-23T02:02:54.219Z,20.27
2018-01-23T02:05:21.782Z,18.83
2018-01-23T02:07:49.258Z,22.30
2018-01-23T02:10:16.719Z,25.05
2018-01-23T02:12:44.964Z,24.08
2018-01-23T02:15:12.426Z,19.40
2018-01-23T02:17:39.993Z,19.17
2018-01-23T02:20:07.459Z,23.08
2018-01-23T02:22:34.944Z,17.35
2018-01-23T02:25:03.180Z,18.73
2018-01-23T02:27:30.762Z,17.10
2018-01-23T02:29:58.305Z,18.77
2018-01-23T02:32:25.775Z,20.67
2018-01-23T02:34:53.340Z,11.90
2018-01-23T02:37:20.989Z,18.52
2018-01-23T02:39:48.471Z,20.80
2018-01-23T02:42:16.702Z,20.75
2018-01-23T02:44:44.197Z,18.70
2018-01-23T02:47:11.699Z,21.98
2018-01-23T02:49:39.224Z,18.15
2018-01-23T02:52:07.490Z,18.30
2018-01-23T02:54:34.966Z,24.65
2018-01-23T02:57:03.203Z,19.60
2018-01-23T02:59:30.672Z,19.80
2018-01-23T03:01:58.241Z,29.27
2018-01-23T03:04:25.801Z,22.70
2018-01-23T03:06:53.255Z,30.45
2018-01-23T03:09:20.722Z,23.58
2018-01-23T03:11:48.183Z,18.62
2018-01-23T03:14:16.448Z,20.40
2018-01-23T03:16:43.968Z,19.50
2018-01-23T03:19:11.459Z,18.85
2018-01-23T03:21:39.088Z,21.00
2018-01-23T03:24:06.546Z,21.67
2018-01-23T03:26:34.099Z,17.62
2018-01-23T03:29:01.614Z,17.80
2018-01-23T03:31:29.207Z,21.60
2018-01-23T03:33:57.502Z,20.10
2018-01-23T03:36:24.958Z,18.85
2018-01-23T03:38:52.426Z,15.32
2018-01-23T03:41:19.922Z,23.77
2018-01-23T03:43:47.507Z,17.80
2018-01-23T03:46:15.812Z,13.88
2018-01-23T03:48:43.300Z,16.58
2018-01-23T03:51:10.782Z,18.65
2018-01-23T03:53:38.238Z,23.33
2018-01-23T03:56:05.798Z,11.25
2018-01-23T03:58:33.254Z,18.80
2018-01-23T04:01:00.721Z,20.33
2018-01-23T04:03:28.199Z,15.80
2018-01-23T04:05:56.445Z,12.75
2018-01-23T04:08:24.002Z,19.12
2018-01-23T04:10:51.565Z,14.90
2018-01-23T04:13:19.027Z,12.50
2018-01-23T04:15:46.567Z,12.75
2018-01-23T04:18:14.039Z,15.43
2018-01-23T04:20:41.556Z,16.65
2018-01-23T04:23:09.068Z,18.37
2018-01-23T04:25:36.614Z,13.70
2018-01-23T04:28:04.101Z,21.25
2018-01-23T04:30:32.413Z,10.00
2018-01-23T04:32:59.868Z,14.35
2018-01-23T04:35:27.346Z,18.65
2018-01-23T04:37:54.802Z,18.40
2018-01-23T04:40:22.302Z,14.00
2018-01-23T04:42:49.860Z,15.68
2018-01-23T04:45:17.322Z,16.70
2018-01-23T04:47:45.586Z,18.20
2018-01-23T04:50:13.166Z,16.87
2018-01-23T04:52:41.407Z,18.65
2018-01-23T04:55:08.885Z,14.27
2018-01-23T04:57:36.455Z,14.05
2018-01-23T05:00:04.006Z,14.02
2018-01-23T05:02:31.572Z,12.73
2018-01-23T05:04:59.130Z,12.82
2018-01-23T05:07:26.696Z,17.87
2018-01-23T05:09:54.250Z,13.25
2018-01-23T05:12:21.803Z,15.45
2018-01-23T05:14:49.266Z,14.00
2018-01-23T05:17:16.869Z,11.75
2018-01-23T05:19:44.356Z,16.17
2018-01-23T05:22:11.819Z,10.50
2018-01-23T05:24:39.385Z,12.75
2018-01-23T05:27:06.834Z,15.27
2018-01-23T05:29:34.316Z,20.92
2018-01-23T05:32:01.775Z,15.38
2018-01-23T05:34:29.251Z,14.57
2018-01-23T05:54:20.450Z,20.45
2018-01-23T06:23:02.489Z,17.65
2018-01-23T06:34:33.490Z,19.05
2018-01-23T07:19:09.839Z,19.08
2018-01-23T08:13:08.620Z,19.85
2018-01-23T08:15:54.155Z,18.98
2018-01-23T08:27:18.193Z,15.85
2018-01-23T08:41:15.939Z,15.70
2018-01-23T08:43:44.315Z,18.20
2018-01-23T08:46:24.223Z,12.60
2018-01-23T08:51:39.864Z,24.12
2018-01-23T08:54:16.024Z,12.55
2018-01-23T08:59:30.604Z,15.73
2018-01-23T09:05:11.394Z,18.12
2018-01-23T09:07:49.603Z,16.30
2018-01-23T09:10:40.270Z,15.38
2018-01-23T09:16:22.118Z,15.90
2018-01-23T09:19:06.272Z,11.10
2018-01-23T09:42:12.978Z,18.92
2018-01-23T09:59:03.573Z,11.40
2018-01-23T10:01:47.005Z,12.63
2018-01-23T10:04:25.443Z,12.32
2018-01-23T10:06:53.593Z,9.48
2018-01-23T10:09:22.689Z,8.32
2018-01-23T10:11:51.272Z,14.20
2018-01-23T10:14:20.368Z,8.88
2018-01-23T10:17:01.100Z,9.48
2018-01-23T10:19:30.239Z,13.35
2018-01-23T10:21:58.719Z,9.23
2018-01-23T10:27:28.196Z,10.55
2018-01-23T10:29:57.438Z,6.85
2018-01-23T10:32:25.101Z,5.12
2018-01-23T10:34:52.967Z,10.95
2018-01-23T10:37:20.972Z,8.35
2018-01-23T10:39:51.556Z,6.80
2018-01-23T10:42:20.249Z,8.05
2018-01-23T10:44:48.320Z,10.23
2018-01-23T10:47:16.910Z,6.87
2018-01-23T10:49:44.807Z,9.90
2018-01-23T10:52:13.154Z,7.15
2018-01-23T10:57:48.927Z,8.23
2018-01-23T11:00:17.088Z,7.03
2018-01-23T11:02:48.246Z,8.52
2018-01-23T11:20:30.143Z,11.12
2018-01-23T11:23:01.800Z,5.78
2018-01-23T11:25:36.667Z,10.98
2018-01-23T11:28:04.495Z,6.35
2018-01-23T11:30:42.909Z,5.30
2018-01-23T11:33:12.004Z,7.78
2018-01-23T11:35:40.178Z,14.00
2018-01-23T11:38:17.876Z,8.88
2018-01-23T11:40:52.501Z,13.05
2018-01-23T11:43:20.847Z,4.97
2018-01-23T11:45:48.746Z,4.18
2018-01-23T11:48:16.681Z,10.90
2018-01-23T11:50:44.444Z,10.57
2018-01-23T11:58:22.276Z,8.75
2018-01-23T12:00:50.244Z,9.30
2018-01-23T12:03:18.253Z,5.57
2018-01-23T12:05:48.976Z,9.45
2018-01-23T12:08:16.957Z,8.13
2018-01-23T12:10:45.031Z,10.07
2018-01-23T12:13:12.949Z,8.73
2018-01-23T12:15:54.490Z,8.38
2018-01-23T12:18:22.237Z,8.18
2018-01-23T12:20:51.327Z,10.63
2018-01-23T12:23:20.128Z,11.35
2018-01-23T12:25:48.204Z,20.45
2018-01-23T12:28:16.174Z,6.22
2018-01-23T12:30:43.918Z,9.57
2018-01-23T12:33:21.754Z,8.15
2018-01-23T12:35:49.341Z,8.80
2018-01-23T12:38:20.831Z,12.40
2018-01-23T12:40:49.139Z,10.60
2018-01-23T12:43:17.097Z,15.25
2018-01-23T12:45:45.303Z,9.63
2018-01-23T12:48:13.041Z,10.88
2018-01-23T12:50:40.574Z,9.80
2018-01-23T12:53:08.909Z,13.90
2018-01-23T12:55:36.458Z,8.50
2018-01-23T12:58:04.398Z,8.95
2018-01-23T13:00:32.132Z,11.12
2018-01-23T13:02:59.725Z,6.28
2018-01-23T13:05:27.600Z,7.78
2018-01-23T13:07:55.149Z,9.68
2018-01-23T13:10:22.805Z,13.82
2018-01-23T13:12:50.751Z,9.02
2018-01-23T13:15:18.612Z,14.55
2018-01-23T13:17:51.905Z,10.10
2018-01-23T13:20:19.668Z,7.82
2018-01-23T13:22:47.253Z,8.23
2018-01-23T13:25:16.054Z,8.88
2018-01-23T13:27:43.708Z,9.75
2018-01-23T13:30:12.706Z,5.87
2018-01-23T13:32:40.576Z,8.05
2018-01-23T13:35:08.410Z,11.35
2018-01-23T13:37:36.412Z,8.80
2018-01-23T13:40:04.116Z,9.57
2018-01-23T13:42:31.736Z,7.68
2018-01-23T13:45:03.183Z,6.05
2018-01-23T13:47:31.308Z,5.30
2018-01-23T13:49:59.129Z,11.23
2018-01-23T13:52:27.197Z,6.62
2018-01-23T13:54:54.847Z,8.30
2018-01-23T13:57:22.650Z,10.93
2018-01-23T13:59:50.389Z,5.93
2018-01-23T14:02:18.104Z,10.18
2018-01-23T14:04:46.122Z,9.07
2018-01-23T14:07:13.663Z,10.48
2018-01-23T14:09:41.958Z,5.45
2018-01-23T14:12:09.927Z,10.27
2018-01-23T14:14:37.748Z,7.37
2018-01-23T14:17:08.538Z,9.90
2018-01-23T14:19:36.567Z,11.27
2018-01-23T14:22:08.468Z,7.47
2018-01-23T14:24:36.695Z,5.62
2018-01-23T14:27:04.699Z,5.72
2018-01-23T14:29:33.850Z,14.30
2018-01-23T14:32:01.783Z,10.80
2018-01-23T14:34:29.440Z,9.77
2018-01-23T14:37:03.547Z,10.93
2018-01-23T14:39:32.437Z,7.05
2018-01-23T14:42:00.610Z,9.52
2018-01-23T14:44:29.398Z,8.90
2018-01-23T14:46:57.228Z,11.30
2018-01-23T14:49:35.727Z,7.28
2018-01-23T14:52:04.468Z,7.28
2018-01-23T14:54:33.380Z,8.57
2018-01-23T14:57:01.359Z,6.97
2018-01-23T14:59:29.481Z,9.10
2018-01-23T15:02:08.816Z,9.95
2018-01-23T15:04:47.047Z,7.40
2018-01-23T15:07:14.914Z,8.73
2018-01-23T15:09:43.089Z,6.55
2018-01-23T15:12:13.208Z,11.30
2018-01-23T15:14:52.446Z,9.88
2018-01-23T15:17:21.351Z,6.95
2018-01-23T15:19:49.435Z,9.93
2018-01-23T15:22:19.927Z,6.65
2018-01-23T15:24:57.615Z,6.07
2018-01-23T15:27:43.112Z,7.40
2018-01-23T19:02:35.296Z,9.57
2018-01-23T19:07:58.451Z,12.77
2018-01-23T19:10:27.100Z,11.65
